Mecca, Ohio
Current Conditions -  °F | °C
As of 10:51 AM on Saturday 25 Oct 2014 (Local Time) from KYNG Reporting Station
Scattered Clouds Scattered Clouds  
Wind Chill: 58°   Ceiling: Unl
Heat Index: 58°   Visibility: 10mi
Dew Point: 49°   Wind: 14mph
Humidity: 72%   Direction: 220°SW
Pressure: 29.86"   Gusts: NA
Location:  41.3436°N, 80.7192°W
Report Text: KYNG 251451Z 22012KT 10SM FEW070 SCT095 SCT220 14/09 A2986 RMK AO2 SLP111 T01440094 58020 $
Loading
Personal Weather Stations






























Interactive Weather Map
Tropical Storm Tracking
New forecast layout! Learn more

10-Day Weather Forecast

Advertisements
Track Severe Weather on mobile